^^
Station Historical Data
Daily Summary for February 11, 2018 Units:  English    Metric   Both
« Previous Day
Next Day »
Daily Weekly Monthly Yearly Custom
  High: Low: Average:
Temperature: TemperatureF °F 58.5 °F 67.8 °F
Dew Point: DewpointF °F 54.7 °F 55.6 °F
Humidity: Humidity% 52% 65%
Wind Speed: WindSpeedMPHmph -999.9mph -13mph
Wind Gust: WindSpeedGustMPHmph - -
Wind- -
Pressure: PressureIn in 29.69 in -
Precipitation: 0.00 in    
Historical Graphs
 
 
Tabular Data for February 11, 2018
Time Temperature Dew Point Pressure Wind Wind Speed Wind Gust Humidity Rainfall Rate (Hourly) solar Conditions
TemperatureF °F DewpointF °F PressureIn in Calm     Humidity% HourlyPrecipIn in SoftwareType W/m2 Conditions
08:48 58.5 °F 54.9 °F 29.77 in North -999.9 mph -999.0 mph 88% 0.00 in meteobridge W/m2
08:54 58.8 °F 55.0 °F 29.77 in NNE 8.9 mph 14.0 mph 87% 0.00 in meteobridge W/m2
09:00 59.2 °F 55.4 °F 29.77 in NE 4.9 mph 16.0 mph 87% 0.00 in meteobridge W/m2
09:06 58.8 °F 55.0 °F 29.77 in NNW 6.9 mph 13.0 mph 87% 0.00 in meteobridge W/m2
09:12 59.4 °F 55.2 °F 29.77 in NNE 8.9 mph 14.0 mph 86% 0.00 in meteobridge W/m2
09:18 59.4 °F 55.2 °F 29.77 in NNE 8.9 mph 15.0 mph 86% 0.00 in meteobridge W/m2
09:24 59.2 °F 55.0 °F 29.78 in North 12.1 mph 14.0 mph 86% 0.00 in meteobridge W/m2
09:31 59.4 °F 55.2 °F 29.78 in NNE 8.1 mph 14.0 mph 86% 0.00 in meteobridge W/m2
09:37 59.9 °F 55.8 °F 29.78 in North 8.1 mph 13.0 mph 86% 0.00 in meteobridge W/m2
09:43 60.1 °F 55.9 °F 29.77 in NNE 10.1 mph 14.0 mph 86% 0.00 in meteobridge W/m2
09:49 60.1 °F 55.6 °F 29.77 in NNE 13.0 mph 16.0 mph 85% 0.00 in meteobridge W/m2
09:55 60.3 °F 55.4 °F 29.77 in North 11.0 mph 16.0 mph 84% 0.00 in meteobridge W/m2
10:01 60.6 °F 55.8 °F 29.77 in North 14.1 mph 15.0 mph 84% 0.00 in meteobridge W/m2
10:07 61.3 °F 56.1 °F 29.77 in North 11.0 mph 14.0 mph 83% 0.00 in meteobridge W/m2
10:14 62.1 °F 56.5 °F 29.78 in North 10.1 mph 13.0 mph 82% 0.00 in meteobridge W/m2
10:20 62.6 °F 56.3 °F 29.77 in NNE 13.0 mph 14.0 mph 80% 0.00 in meteobridge W/m2
10:26 63.3 °F 56.7 °F 29.77 in NNE 10.1 mph 16.0 mph 79% 0.00 in meteobridge W/m2
10:32 64.2 °F 57.2 °F 29.77 in NNE 6.0 mph 12.0 mph 78% 0.00 in meteobridge W/m2
10:38 64.2 °F 56.1 °F 29.77 in NNE 11.0 mph 15.0 mph 75% 0.00 in meteobridge W/m2
10:44 64.2 °F 56.8 °F 29.77 in North 10.1 mph 14.0 mph 77% 0.00 in meteobridge W/m2
10:50 64.0 °F 55.9 °F 29.77 in NNW 10.1 mph 14.0 mph 75% 0.00 in meteobridge W/m2
10:56 64.6 °F 56.8 °F 29.77 in North 11.0 mph 16.0 mph 76% 0.00 in meteobridge W/m2
11:02 65.1 °F 56.7 °F 29.77 in North 4.9 mph 15.0 mph 74% 0.00 in meteobridge W/m2
11:09 65.7 °F 56.8 °F 29.77 in NNW 6.9 mph 13.0 mph 73% 0.00 in meteobridge W/m2
11:15 65.8 °F 56.5 °F 29.77 in NNE 6.0 mph 13.0 mph 72% 0.00 in meteobridge W/m2
11:21 65.8 °F 56.5 °F 29.77 in NNE 4.9 mph 13.0 mph 72% 0.00 in meteobridge W/m2
11:27 66.2 °F 56.8 °F 29.77 in North 6.0 mph 10.0 mph 72% 0.00 in meteobridge W/m2
11:33 66.0 °F 57.2 °F 29.77 in NNE 6.0 mph 13.0 mph 73% 0.00 in meteobridge W/m2
11:39 66.0 °F 57.2 °F 29.77 in NNW 6.0 mph 12.0 mph 73% 0.00 in meteobridge W/m2
11:45 66.6 °F 57.2 °F 29.77 in NE 8.9 mph 10.0 mph 72% 0.00 in meteobridge W/m2
11:51 67.8 °F 57.7 °F 29.77 in NNE 6.9 mph 10.0 mph 70% 0.00 in meteobridge W/m2
11:57 67.5 °F 57.0 °F 29.77 in North 8.1 mph 12.0 mph 69% 0.00 in meteobridge W/m2
12:03 67.3 °F 57.2 °F 29.77 in NNE 4.9 mph 13.0 mph 70% 0.00 in meteobridge W/m2
12:10 67.6 °F 57.6 °F 29.77 in NNW 6.0 mph 10.0 mph 70% 0.00 in meteobridge W/m2
12:16 67.5 °F 55.8 °F 29.77 in North 2.9 mph 5.0 mph 66% 0.00 in meteobridge W/m2
12:22 69.3 °F 56.5 °F 29.77 in ENE 2.9 mph 9.0 mph 64% 0.00 in meteobridge W/m2
12:28 70.7 °F 56.1 °F 29.77 in NE 4.9 mph 11.0 mph 60% 0.00 in meteobridge W/m2
12:34 70.5 °F 55.6 °F 29.77 in ENE 2.9 mph 17.0 mph 59% 0.00 in meteobridge W/m2
12:40 71.1 °F 55.9 °F 29.76 in North 14.1 mph 14.1 mph 59% 0.00 in meteobridge W/m2
12:46 70.9 °F 56.8 °F 29.76 in ENE 2.9 mph 14.0 mph 61% 0.00 in meteobridge W/m2
12:52 71.4 °F 56.8 °F 29.76 in NE 8.9 mph 12.0 mph 60% 0.00 in meteobridge W/m2
12:59 70.7 °F 55.2 °F 29.76 in NNE 11.0 mph 12.0 mph 58% 0.00 in meteobridge W/m2
13:05 69.6 °F 54.7 °F 29.76 in NNE 6.9 mph 16.0 mph 59% 0.00 in meteobridge W/m2
13:11 70.2 °F 55.6 °F 29.76 in North 14.1 mph 16.0 mph 60% 0.00 in meteobridge W/m2
13:17 70.5 °F 55.6 °F 29.76 in NE 6.0 mph 11.0 mph 59% 0.00 in meteobridge W/m2
13:23 72.1 °F 56.5 °F 29.76 in NE 12.1 mph 18.0 mph 58% 0.00 in meteobridge W/m2
13:29 71.4 °F 56.3 °F 29.76 in NNE 10.1 mph 14.0 mph 59% 0.00 in meteobridge W/m2
13:35 70.7 °F 56.1 °F 29.76 in NE 8.1 mph 16.0 mph 60% 0.00 in meteobridge W/m2
13:42 69.3 °F 55.8 °F 29.76 in Calm   12.0 mph 62% 0.00 in meteobridge W/m2
13:48 68.7 °F 55.6 °F 29.76 in NNE 4.0 mph 12.0 mph 63% 0.00 in meteobridge W/m2
13:54 68.5 °F 55.4 °F 29.76 in NE 11.0 mph 16.0 mph 63% 0.00 in meteobridge W/m2
14:00 68.5 °F 55.9 °F 29.75 in NNE 14.1 mph 21.0 mph 64% 0.00 in meteobridge W/m2
14:06 70.2 °F 56.5 °F 29.75 in NNE 6.9 mph 18.0 mph 62% 0.00 in meteobridge W/m2
14:12 71.4 °F 56.3 °F 29.73 in NE 6.9 mph 15.0 mph 59% 0.00 in meteobridge W/m2
14:18 71.4 °F 55.9 °F 29.73 in NE 6.9 mph 14.0 mph 58% 0.00 in meteobridge W/m2
14:25 73.8 °F 57.0 °F 29.73 in ENE 4.9 mph 10.0 mph 56% 0.00 in meteobridge W/m2
14:31 73.8 °F 56.1 °F 29.73 in SE 4.0 mph 10.0 mph 54% 0.00 in meteobridge W/m2
14:37 75.2 °F 56.8 °F 29.72 in NNE 12.1 mph 12.1 mph 53% 0.00 in meteobridge W/m2
14:43 73.6 °F 56.5 °F 29.72 in NNE 12.1 mph 17.0 mph 55% 0.00 in meteobridge W/m2
14:49 71.8 °F 56.1 °F 29.72 in NNE 4.9 mph 10.0 mph 58% 0.00 in meteobridge W/m2
14:55 71.8 °F 56.1 °F 29.72 in NE 0.9 mph 13.0 mph 58% 0.00 in meteobridge W/m2
15:01 71.8 °F 56.1 °F 29.72 in ENE 2.0 mph 6.0 mph 58% 0.00 in meteobridge W/m2
15:07 72.7 °F 57.0 °F 29.71 in ENE 4.9 mph 7.0 mph 58% 0.00 in meteobridge W/m2
15:13 74.1 °F 56.8 °F 29.70 in SE 2.0 mph 11.0 mph 55% 0.00 in meteobridge W/m2
15:19 75.0 °F 56.7 °F 29.70 in NNE 4.9 mph 6.0 mph 53% 0.00 in meteobridge W/m2
15:25 75.2 °F 56.8 °F 29.70 in NNE 2.0 mph 7.0 mph 53% 0.00 in meteobridge W/m2
15:31 75.6 °F 56.7 °F 29.70 in NNE 2.0 mph 10.0 mph 52% 0.00 in meteobridge W/m2
15:37 74.8 °F 57.0 °F 29.70 in ESE 6.0 mph 12.0 mph 54% 0.00 in meteobridge W/m2
15:43 73.2 °F 57.0 °F 29.70 in ENE 4.9 mph 16.0 mph 57% 0.00 in meteobridge W/m2
15:50 71.4 °F 56.3 °F 29.70 in NE 2.0 mph 10.0 mph 59% 0.00 in meteobridge W/m2
15:56 71.4 °F 57.2 °F 29.69 in ENE 12.1 mph 12.1 mph 61% 0.00 in meteobridge W/m2
16:02 72.3 °F 56.7 °F 29.69 in NE 10.1 mph 15.0 mph 58% 0.00 in meteobridge W/m2
16:08 73.0 °F 56.5 °F 29.69 in ENE 4.0 mph 12.0 mph 56% 0.00 in meteobridge W/m2
16:14 73.6 °F 55.9 °F 29.69 in ESE 2.9 mph 7.0 mph 54% 0.00 in meteobridge W/m2
16:20 72.9 °F 55.2 °F 29.69 in NE 8.9 mph 13.0 mph 54% 0.00 in meteobridge W/m2
16:27 72.3 °F 55.2 °F 29.69 in NE 4.0 mph 6.0 mph 55% 0.00 in meteobridge W/m2
16:33 72.9 °F 55.8 °F 29.69 in NNE 8.1 mph 11.0 mph 55% 0.00 in meteobridge W/m2
16:39 72.5 °F 54.9 °F 29.70 in NE 2.9 mph 9.0 mph 54% 0.00 in meteobridge W/m2
16:45 72.5 °F 55.9 °F 29.70 in North 2.9 mph 6.0 mph 56% 0.00 in meteobridge W/m2
16:51 72.7 °F 56.1 °F 29.69 in East 2.9 mph 4.0 mph 56% 0.00 in meteobridge W/m2
16:57 73.4 °F 56.3 °F 29.70 in SE 2.9 mph 5.0 mph 55% 0.00 in meteobridge W/m2
17:03 73.6 °F 56.5 °F 29.70 in NNE 6.0 mph 9.0 mph 55% 0.00 in meteobridge W/m2
17:09 72.5 °F 55.9 °F 29.69 in North 4.9 mph 6.0 mph 56% 0.00 in meteobridge W/m2
17:15 71.8 °F 55.8 °F 29.70 in NE 2.9 mph 6.0 mph 57% 0.00 in meteobridge W/m2
17:22 71.4 °F 55.9 °F 29.70 in Calm   4.0 mph 58% 0.00 in meteobridge W/m2
17:28 71.2 °F 56.1 °F 29.69 in ENE 4.9 mph 6.0 mph 59% 0.00 in meteobridge W/m2
17:34 70.9 °F 55.8 °F 29.69 in East 2.0 mph 5.0 mph 59% 0.00 in meteobridge W/m2
17:40 70.5 °F 55.6 °F 29.70 in East 0.9 mph 7.0 mph 59% 0.00 in meteobridge W/m2
17:46 70.3 °F 55.8 °F 29.69 in NNE 2.9 mph 7.0 mph 60% 0.00 in meteobridge W/m2
17:52 70.2 °F 56.5 °F 29.69 in ENE 2.9 mph 3.0 mph 62% 0.00 in meteobridge W/m2
17:58 70.0 °F 56.3 °F 29.69 in ENE 0.9 mph 5.0 mph 62% 0.00 in meteobridge W/m2
18:04 70.0 °F 55.9 °F 29.70 in SSE 0.9 mph 4.0 mph 61% 0.00 in meteobridge W/m2
18:11 69.6 °F 55.6 °F 29.70 in South 2.9 mph 9.0 mph 61% 0.00 in meteobridge W/m2
18:16 69.4 °F 55.4 °F 29.69 in South 4.9 mph 7.0 mph 61% 0.00 in meteobridge W/m2
18:23 69.4 °F 55.4 °F 29.70 in South 4.9 mph 11.0 mph 61% 0.00 in meteobridge W/m2
18:29 69.4 °F 55.4 °F 29.70 in South 4.9 mph 13.0 mph 61% 0.00 in meteobridge W/m2
18:35 69.4 °F 55.4 °F 29.71 in SSW 6.9 mph 10.0 mph 61% 0.00 in meteobridge W/m2
18:41 68.0 °F 56.7 °F 29.72 in SW 11.0 mph 27.0 mph 67% 0.00 in meteobridge W/m2
18:47 66.4 °F 57.0 °F 29.72 in SSW 13.0 mph 18.0 mph 72% 0.00 in meteobridge W/m2
18:53 66.2 °F 56.8 °F 29.72 in South 6.9 mph 7.0 mph 72% 0.00 in meteobridge W/m2
19:00 66.2 °F 56.8 °F 29.72 in South 6.9 mph -999.0 mph 72% 0.00 in meteobridge W/m2
19:06 66.2 °F 56.8 °F 29.73 in North -999.9 mph -999.0 mph 72% 0.00 in meteobridge W/m2
Regenstein, Windhoek, Namibia
Compliments of Weather Underground - 2.5 mb